createdAt,value
2022-12-03T00:02:18.219Z,23.83
2022-12-03T00:06:18.866Z,23.87
2022-12-03T00:10:19.092Z,22.77
2022-12-03T00:14:19.202Z,23.33
2022-12-03T00:18:21.925Z,22.67
2022-12-03T00:22:22.057Z,22.23
2022-12-03T00:26:22.160Z,22.93
2022-12-03T00:30:22.566Z,22.60
2022-12-03T00:34:25.262Z,22.20
2022-12-03T00:38:25.508Z,24.53
2022-12-03T00:42:25.636Z,22.93
2022-12-03T00:46:25.743Z,23.57
2022-12-03T00:50:28.550Z,22.00
2022-12-03T00:54:32.116Z,22.37
2022-12-03T00:58:32.464Z,21.57
2022-12-03T01:02:32.796Z,21.83
2022-12-03T01:06:35.488Z,21.47
2022-12-03T01:10:35.598Z,22.17
2022-12-03T01:14:35.724Z,21.17
2022-12-03T01:18:35.787Z,20.40
2022-12-03T01:22:38.653Z,19.97
2022-12-03T01:26:39.004Z,20.63
2022-12-03T01:30:59.761Z,21.90
2022-12-03T01:35:00.180Z,21.27
2022-12-03T01:39:03.055Z,21.20
2022-12-03T01:43:03.151Z,20.97
2022-12-03T01:47:07.043Z,21.40
2022-12-03T01:51:07.902Z,20.27
2022-12-03T01:55:18.006Z,19.60
2022-12-03T01:59:21.453Z,19.93
2022-12-03T02:03:27.188Z,19.80
2022-12-03T02:07:30.746Z,20.50
2022-12-03T02:11:38.394Z,20.30
2022-12-03T02:15:39.691Z,19.50
2022-12-03T02:19:39.944Z,19.93
2022-12-03T02:23:53.423Z,19.33
2022-12-03T02:27:58.348Z,20.33
2022-12-03T02:31:59.168Z,20.23
2022-12-03T02:36:03.595Z,19.07
2022-12-03T02:40:09.706Z,18.90
2022-12-03T02:44:13.103Z,18.93
2022-12-03T02:48:19.460Z,19.60
2022-12-03T02:52:19.790Z,19.20
2022-12-03T02:56:24.088Z,19.97
2022-12-03T03:00:27.423Z,18.40
2022-12-03T03:04:28.170Z,20.37
2022-12-03T03:08:29.857Z,20.60
2022-12-03T03:12:32.592Z,20.40
2022-12-03T03:16:38.673Z,19.73
2022-12-03T03:20:39.692Z,18.60
2022-12-03T03:24:40.331Z,20.90
2022-12-03T03:28:44.575Z,21.43
2022-12-03T03:32:47.343Z,19.93
2022-12-03T03:36:48.558Z,18.30
2022-12-03T03:40:50.669Z,20.67
2022-12-03T03:44:51.136Z,19.10
2022-12-03T03:48:55.279Z,20.17
2022-12-03T03:52:56.054Z,20.27
2022-12-03T03:56:56.275Z,20.80
2022-12-03T04:00:56.463Z,20.27
2022-12-03T04:04:59.211Z,21.47
2022-12-03T04:08:59.370Z,20.87
2022-12-03T04:12:56.867Z,21.03
2022-12-03T04:16:57.019Z,21.10
2022-12-03T04:21:19.796Z,21.80
2022-12-03T04:25:32.478Z,18.53
2022-12-03T04:29:33.356Z,20.70
2022-12-03T04:33:46.062Z,20.53
2022-12-03T04:37:48.798Z,18.90
2022-12-03T04:41:48.958Z,21.40
2022-12-03T04:45:49.187Z,19.13
2022-12-03T04:49:51.849Z,21.57
2022-12-03T04:53:54.550Z,21.17
2022-12-03T04:57:54.810Z,20.93
2022-12-03T05:01:55.006Z,20.87
2022-12-03T05:05:55.383Z,21.33
2022-12-03T05:09:58.051Z,21.17
2022-12-03T05:13:58.138Z,21.60
2022-12-03T05:17:58.323Z,21.63
2022-12-03T05:21:58.439Z,20.30
2022-12-03T05:26:01.112Z,22.07
2022-12-03T05:30:01.370Z,21.57
2022-12-03T05:34:01.500Z,21.77
2022-12-03T05:38:01.673Z,21.87
2022-12-03T05:42:16.886Z,22.40
2022-12-03T05:46:16.948Z,22.47
2022-12-03T05:50:17.257Z,23.00
2022-12-03T05:54:17.353Z,22.77
2022-12-03T05:58:20.060Z,21.93
2022-12-03T06:02:20.560Z,21.87
2022-12-03T06:06:20.768Z,22.27
2022-12-03T06:10:24.432Z,23.17
2022-12-03T06:14:27.103Z,22.83
2022-12-03T06:18:27.250Z,23.10
2022-12-03T06:22:27.359Z,21.63
2022-12-03T06:26:27.407Z,22.30
2022-12-03T06:30:30.241Z,22.73
2022-12-03T06:34:31.099Z,20.83
2022-12-03T06:38:31.264Z,21.60
2022-12-03T06:42:31.513Z,22.03
2022-12-03T06:46:34.268Z,21.67
2022-12-03T06:50:34.623Z,19.90
2022-12-03T06:54:34.707Z,20.37
2022-12-03T06:58:34.783Z,20.13
2022-12-03T07:02:37.482Z,20.03
2022-12-03T07:06:37.730Z,19.20
2022-12-03T07:10:37.852Z,18.97
2022-12-03T07:14:37.943Z,19.93
2022-12-03T07:18:40.801Z,17.90
2022-12-03T07:22:40.943Z,17.63
2022-12-03T07:26:41.081Z,18.43
2022-12-03T07:30:41.204Z,17.10
2022-12-03T07:34:43.875Z,15.53
2022-12-03T07:38:43.990Z,17.17
2022-12-03T07:42:44.056Z,17.60
2022-12-03T07:46:44.901Z,16.17
2022-12-03T07:50:47.775Z,16.37
2022-12-03T07:54:49.541Z,16.17
2022-12-03T07:58:49.785Z,15.33
2022-12-03T08:02:50.123Z,16.20
2022-12-03T08:06:52.953Z,14.83
2022-12-03T08:10:53.538Z,16.27
2022-12-03T08:14:54.021Z,15.07
2022-12-03T08:18:57.644Z,15.60
2022-12-03T08:23:00.779Z,16.60
2022-12-03T08:27:01.262Z,14.90
2022-12-03T08:31:08.495Z,14.47
2022-12-03T08:35:16.116Z,14.17
2022-12-03T08:39:33.731Z,13.73
2022-12-03T08:43:42.092Z,13.87
2022-12-03T08:47:42.669Z,12.80
2022-12-03T08:51:42.734Z,11.83
2022-12-03T08:55:51.711Z,12.43
2022-12-03T09:00:22.561Z,11.90
2022-12-03T09:04:38.917Z,12.70
2022-12-03T09:08:39.123Z,12.40
2022-12-03T09:12:41.831Z,11.40
2022-12-03T09:16:42.655Z,11.70
2022-12-03T09:20:43.192Z,10.63
2022-12-03T09:24:43.235Z,12.13
2022-12-03T09:28:46.401Z,10.87
2022-12-03T09:32:47.420Z,10.57
2022-12-03T09:36:49.121Z,11.17
2022-12-03T09:40:49.439Z,10.50
2022-12-03T09:44:52.329Z,10.60
2022-12-03T09:48:53.367Z,9.50
2022-12-03T09:52:57.382Z,11.23
2022-12-03T09:57:02.387Z,10.00
2022-12-03T10:01:05.301Z,10.03
2022-12-03T10:05:05.526Z,9.27
2022-12-03T10:09:07.079Z,9.37
2022-12-03T10:13:09.913Z,9.63
2022-12-03T10:17:14.467Z,9.57
2022-12-03T10:21:23.063Z,9.47
2022-12-03T10:25:25.594Z,9.63
2022-12-03T10:29:33.593Z,9.53
2022-12-03T10:33:40.462Z,9.83
2022-12-03T10:37:59.683Z,9.37
2022-12-03T10:42:18.680Z,9.33
2022-12-03T10:46:23.022Z,8.80
2022-12-03T10:50:26.064Z,9.47
2022-12-03T10:54:28.838Z,9.60
2022-12-03T10:58:32.074Z,9.40
2022-12-03T11:02:32.412Z,8.87
2022-12-03T11:06:35.956Z,9.00
2022-12-03T11:10:36.164Z,9.00
2022-12-03T11:15:10.341Z,8.67
2022-12-03T11:19:19.861Z,9.37
2022-12-03T11:24:08.129Z,9.20
2022-12-03T11:28:51.783Z,9.37
2022-12-03T11:33:24.539Z,10.00
2022-12-03T11:37:27.632Z,9.20
2022-12-03T11:41:34.863Z,9.80
2022-12-03T11:45:39.416Z,9.60
2022-12-03T11:49:49.503Z,8.37
2022-12-03T11:53:52.468Z,9.17
2022-12-03T11:58:02.227Z,8.50
2022-12-03T12:02:04.437Z,9.50
2022-12-03T12:06:08.356Z,8.90
2022-12-03T12:10:10.155Z,8.87
2022-12-03T12:14:14.582Z,8.83
2022-12-03T12:18:41.106Z,8.83
2022-12-03T12:22:41.310Z,9.13
2022-12-03T12:26:41.431Z,9.17
2022-12-03T12:30:44.385Z,9.70
2022-12-03T12:34:47.427Z,9.13
2022-12-03T12:38:47.514Z,9.17
2022-12-03T12:42:54.141Z,9.03
2022-12-03T12:46:57.434Z,9.23
2022-12-03T12:51:04.417Z,9.60
2022-12-03T12:55:05.347Z,10.87
2022-12-03T12:59:16.265Z,9.77
2022-12-03T13:03:21.494Z,10.30
2022-12-03T13:07:22.454Z,10.40
2022-12-03T13:11:42.249Z,10.33
2022-12-03T13:15:55.870Z,9.77
2022-12-03T13:20:07.699Z,9.57
2022-12-03T13:24:39.413Z,9.67
2022-12-03T13:28:39.529Z,9.07
2022-12-03T13:32:41.680Z,9.77
2022-12-03T13:36:50.721Z,10.70
2022-12-03T13:41:05.763Z,9.50
2022-12-03T13:45:32.394Z,9.00
2022-12-03T13:49:33.004Z,9.33
2022-12-03T13:53:41.977Z,9.20
2022-12-03T13:57:42.296Z,8.63
2022-12-03T14:01:42.853Z,8.67
2022-12-03T14:05:43.260Z,8.67
2022-12-03T14:09:46.345Z,8.80
2022-12-03T14:13:46.513Z,10.20
2022-12-03T14:17:46.605Z,9.03
2022-12-03T14:21:46.714Z,9.10
2022-12-03T14:25:49.533Z,8.97
2022-12-03T14:29:49.915Z,10.53
2022-12-03T14:33:50.358Z,10.60
2022-12-03T14:37:50.460Z,9.53
2022-12-03T14:42:05.674Z,9.80
2022-12-03T14:46:05.815Z,9.60
2022-12-03T14:50:08.157Z,9.57
2022-12-03T14:54:08.459Z,10.07
2022-12-03T14:58:11.271Z,10.80
2022-12-03T15:02:13.608Z,10.93
2022-12-03T15:06:13.937Z,10.83
2022-12-03T15:10:16.403Z,11.07
2022-12-03T15:14:19.455Z,11.97
2022-12-03T15:18:19.962Z,13.53
2022-12-03T15:22:20.341Z,11.77
2022-12-03T15:26:20.716Z,13.00
2022-12-03T15:30:23.713Z,11.53
2022-12-03T15:34:23.995Z,11.93
2022-12-03T15:38:25.408Z,14.77
2022-12-03T15:42:25.668Z,13.10
2022-12-03T15:46:31.693Z,12.50
2022-12-03T15:50:35.765Z,11.97
2022-12-03T15:54:40.257Z,11.87
2022-12-03T15:58:40.556Z,12.00
2022-12-03T16:02:49.150Z,12.17
2022-12-03T16:06:52.584Z,12.10
2022-12-03T16:10:53.061Z,12.50
2022-12-03T16:14:53.208Z,12.80
2022-12-03T16:18:55.895Z,12.13
2022-12-03T16:22:56.131Z,11.23
2022-12-03T16:26:56.280Z,11.73
2022-12-03T16:30:56.421Z,11.30
2022-12-03T16:34:59.272Z,11.83
2022-12-03T16:38:59.346Z,13.77
2022-12-03T16:43:00.342Z,12.17
2022-12-03T16:47:01.626Z,13.37
2022-12-03T16:51:04.367Z,12.83
2022-12-03T16:55:04.659Z,12.17
2022-12-03T16:59:04.720Z,12.73
2022-12-03T17:03:05.095Z,14.57
2022-12-03T17:07:07.990Z,17.20
2022-12-03T17:11:08.598Z,13.20
2022-12-03T17:15:10.031Z,13.23
2022-12-03T17:19:10.181Z,13.17
2022-12-03T17:23:12.896Z,15.93
2022-12-03T17:27:13.105Z,15.70
2022-12-03T17:31:13.453Z,14.10
2022-12-03T17:35:15.212Z,13.17
2022-12-03T17:39:17.889Z,13.93
2022-12-03T17:43:17.991Z,14.90
2022-12-03T17:47:18.142Z,15.30
2022-12-03T17:51:19.350Z,16.23
2022-12-03T17:55:32.120Z,13.60
2022-12-03T17:59:36.241Z,14.53
2022-12-03T18:03:36.345Z,14.83
2022-12-03T18:07:36.630Z,13.87
2022-12-03T18:11:39.392Z,13.73
2022-12-03T18:15:39.527Z,13.87
2022-12-03T18:19:39.704Z,12.70
2022-12-03T18:23:40.443Z,13.00
2022-12-03T18:27:43.198Z,14.07
2022-12-03T18:31:43.365Z,14.67
2022-12-03T18:35:43.719Z,13.63
2022-12-03T18:39:48.250Z,15.00
2022-12-03T18:43:52.017Z,13.93
2022-12-03T18:47:52.187Z,13.10
2022-12-03T18:51:59.058Z,15.43
2022-12-03T18:55:59.583Z,14.67
2022-12-03T19:00:02.369Z,14.43
2022-12-03T19:04:02.999Z,12.93
2022-12-03T19:08:03.538Z,12.67
2022-12-03T19:12:03.753Z,12.40
2022-12-03T19:16:09.890Z,13.47
2022-12-03T19:20:12.681Z,13.10
2022-12-03T19:24:28.292Z,13.00
2022-12-03T19:28:30.121Z,11.43
2022-12-03T19:32:32.994Z,10.70
2022-12-03T19:36:35.067Z,11.70
2022-12-03T19:40:35.145Z,11.00
2022-12-03T19:44:35.266Z,10.80
2022-12-03T19:48:39.911Z,10.73
2022-12-03T19:52:40.051Z,10.37
2022-12-03T19:56:40.415Z,10.73
2022-12-03T20:00:40.574Z,10.47
2022-12-03T20:04:43.307Z,10.10
2022-12-03T20:08:44.043Z,9.93
2022-12-03T20:12:44.138Z,9.77
2022-12-03T20:16:44.877Z,9.27
2022-12-03T20:20:47.739Z,9.77
2022-12-03T20:24:47.768Z,9.33
2022-12-03T20:28:48.880Z,14.00
2022-12-03T20:32:49.052Z,12.40
2022-12-03T20:36:51.740Z,10.87
2022-12-03T20:40:52.800Z,10.50
2022-12-03T20:44:55.084Z,9.27
2022-12-03T20:48:56.441Z,9.77
2022-12-03T20:53:23.240Z,9.67
2022-12-03T20:57:19.141Z,8.87
2022-12-03T21:01:22.133Z,27.00
2022-12-03T21:05:22.360Z,9.80
2022-12-03T21:09:25.148Z,9.53
2022-12-03T21:13:29.366Z,9.37
2022-12-03T21:17:32.541Z,10.03
2022-12-03T21:21:32.890Z,9.47
2022-12-03T21:25:37.004Z,10.20
2022-12-03T21:29:37.216Z,9.87
2022-12-03T21:33:38.720Z,10.37
2022-12-03T21:37:38.907Z,9.80
2022-12-03T21:41:41.657Z,9.87
2022-12-03T21:46:01.837Z,9.53
2022-12-03T21:50:02.255Z,9.80
2022-12-03T21:54:02.388Z,10.00
2022-12-03T21:58:05.110Z,9.77
2022-12-03T22:02:05.352Z,9.40
2022-12-03T22:06:05.538Z,10.23
2022-12-03T22:10:06.868Z,9.70
2022-12-03T22:14:09.983Z,10.00
2022-12-03T22:18:10.130Z,9.77
2022-12-03T22:22:10.834Z,10.27
2022-12-03T22:26:15.073Z,10.33
2022-12-03T22:30:18.225Z,10.53
2022-12-03T22:34:18.376Z,10.13
2022-12-03T22:38:18.495Z,10.13
2022-12-03T22:42:18.828Z,10.27
2022-12-03T22:46:21.664Z,10.10
2022-12-03T22:50:21.912Z,9.10
2022-12-03T22:54:24.106Z,10.17
2022-12-03T22:58:25.576Z,9.77
2022-12-03T23:02:28.277Z,10.53
2022-12-03T23:06:29.519Z,9.93
2022-12-03T23:10:33.958Z,9.93
2022-12-03T23:14:34.306Z,9.50
2022-12-03T23:18:37.269Z,9.80
2022-12-03T23:22:37.413Z,9.73
2022-12-03T23:26:40.069Z,10.10
2022-12-03T23:30:41.600Z,10.00
2022-12-03T23:34:44.323Z,11.23
2022-12-03T23:38:45.068Z,11.10
2022-12-03T23:42:45.311Z,11.20
2022-12-03T23:46:45.531Z,10.83
2022-12-03T23:50:48.287Z,9.70
2022-12-03T23:54:49.425Z,10.40
2022-12-03T23:58:49.706Z,10.73
